Terminal Aerodrome Forecast
Issued by NWS

Home | Current Version | Previous Version | Text Only | Print | Product List | Glossary On
Versions: 1 2 3 4 5 6 7 8 9 10 11 12 13 14 15 16 17 18
000
FTUS42 KTBW 050500
TAFLAL
TAF
KLAL 050539Z 0506/0606 15004KT P6SM SCT040
     FM050900 VRB03KT 4SM BR FEW002 SCT007
     FM051500 18009KT P6SM FEW010 SCT050
     FM060000 26008KT P6SM SCT040 SCT200
      AMD NOT SKED TIL 051200=

USA.gov is the U.S. government's official web portal to all federal, state and local government web resources and services.